sensor_id;sensor_type;location;lat;lon;timestamp;P1;durP1;ratioP1;P2;durP2;ratioP2
29774;SDS011;16676;51.202;6.774;2024-03-25T00:00:26;3.10;;;0.82;;
29774;SDS011;16676;51.202;6.774;2024-03-25T00:04:29;1.92;;;0.90;;
29774;SDS011;16676;51.202;6.774;2024-03-25T00:08:31;3.63;;;1.20;;
29774;SDS011;16676;51.202;6.774;2024-03-25T00:12:33;2.72;;;0.88;;
29774;SDS011;16676;51.202;6.774;2024-03-25T00:16:35;3.13;;;0.93;;
29774;SDS011;16676;51.202;6.774;2024-03-25T00:20:39;4.60;;;0.90;;
29774;SDS011;16676;51.202;6.774;2024-03-25T00:24:41;3.78;;;0.90;;
29774;SDS011;16676;51.202;6.774;2024-03-25T00:28:43;3.70;;;0.95;;
29774;SDS011;16676;51.202;6.774;2024-03-25T00:32:45;2.13;;;0.82;;
29774;SDS011;16676;51.202;6.774;2024-03-25T00:36:48;2.13;;;0.85;;
29774;SDS011;16676;51.202;6.774;2024-03-25T00:40:50;2.15;;;0.93;;
29774;SDS011;16676;51.202;6.774;2024-03-25T00:44:52;2.80;;;0.90;;
29774;SDS011;16676;51.202;6.774;2024-03-25T00:48:54;2.08;;;0.80;;
29774;SDS011;16676;51.202;6.774;2024-03-25T00:52:58;2.33;;;0.93;;
29774;SDS011;16676;51.202;6.774;2024-03-25T00:57:00;4.95;;;0.90;;
29774;SDS011;16676;51.202;6.774;2024-03-25T01:01:03;2.97;;;1.00;;
29774;SDS011;16676;51.202;6.774;2024-03-25T01:05:04;1.95;;;0.73;;
29774;SDS011;16676;51.202;6.774;2024-03-25T01:09:08;3.15;;;0.95;;
29774;SDS011;16676;51.202;6.774;2024-03-25T01:13:10;2.42;;;0.90;;
29774;SDS011;16676;51.202;6.774;2024-03-25T01:17:12;2.08;;;0.65;;
29774;SDS011;16676;51.202;6.774;2024-03-25T01:21:14;2.42;;;0.65;;
29774;SDS011;16676;51.202;6.774;2024-03-25T01:25:18;2.60;;;0.82;;
29774;SDS011;16676;51.202;6.774;2024-03-25T01:29:20;2.38;;;0.75;;
29774;SDS011;16676;51.202;6.774;2024-03-25T01:33:22;4.20;;;1.08;;
29774;SDS011;16676;51.202;6.774;2024-03-25T01:37:24;1.48;;;0.68;;
29774;SDS011;16676;51.202;6.774;2024-03-25T01:41:27;3.25;;;1.10;;
29774;SDS011;16676;51.202;6.774;2024-03-25T01:45:30;2.65;;;0.77;;
29774;SDS011;16676;51.202;6.774;2024-03-25T01:49:33;2.65;;;1.00;;
29774;SDS011;16676;51.202;6.774;2024-03-25T01:53:36;2.17;;;0.93;;
29774;SDS011;16676;51.202;6.774;2024-03-25T01:57:39;1.77;;;0.70;;
29774;SDS011;16676;51.202;6.774;2024-03-25T02:01:41;3.47;;;1.00;;
29774;SDS011;16676;51.202;6.774;2024-03-25T02:05:43;3.47;;;0.77;;
29774;SDS011;16676;51.202;6.774;2024-03-25T02:09:45;3.88;;;1.02;;
29774;SDS011;16676;51.202;6.774;2024-03-25T02:13:49;2.97;;;0.80;;
29774;SDS011;16676;51.202;6.774;2024-03-25T02:17:51;3.72;;;1.00;;
29774;SDS011;16676;51.202;6.774;2024-03-25T02:21:53;2.83;;;0.90;;
29774;SDS011;16676;51.202;6.774;2024-03-25T02:25:57;4.05;;;0.90;;
29774;SDS011;16676;51.202;6.774;2024-03-25T02:30:01;2.45;;;0.98;;
29774;SDS011;16676;51.202;6.774;2024-03-25T02:34:05;2.97;;;0.70;;
29774;SDS011;16676;51.202;6.774;2024-03-25T02:38:07;3.63;;;0.85;;
29774;SDS011;16676;51.202;6.774;2024-03-25T02:42:12;2.25;;;0.85;;
29774;SDS011;16676;51.202;6.774;2024-03-25T02:46:14;3.95;;;0.80;;
29774;SDS011;16676;51.202;6.774;2024-03-25T02:50:16;2.65;;;0.77;;
29774;SDS011;16676;51.202;6.774;2024-03-25T02:54:18;2.30;;;0.70;;
29774;SDS011;16676;51.202;6.774;2024-03-25T02:58:21;3.88;;;0.93;;
29774;SDS011;16676;51.202;6.774;2024-03-25T03:02:23;2.58;;;0.82;;
29774;SDS011;16676;51.202;6.774;2024-03-25T03:06:25;4.05;;;1.05;;
29774;SDS011;16676;51.202;6.774;2024-03-25T03:10:27;2.65;;;0.80;;
29774;SDS011;16676;51.202;6.774;2024-03-25T03:14:30;2.42;;;0.80;;
29774;SDS011;16676;51.202;6.774;2024-03-25T03:18:32;4.03;;;1.00;;
29774;SDS011;16676;51.202;6.774;2024-03-25T03:22:35;2.63;;;0.80;;
29774;SDS011;16676;51.202;6.774;2024-03-25T03:26:37;1.98;;;0.90;;
29774;SDS011;16676;51.202;6.774;2024-03-25T03:30:40;2.15;;;0.90;;
29774;SDS011;16676;51.202;6.774;2024-03-25T03:34:42;2.00;;;0.80;;
29774;SDS011;16676;51.202;6.774;2024-03-25T03:38:44;1.88;;;0.80;;
29774;SDS011;16676;51.202;6.774;2024-03-25T03:42:45;2.50;;;0.80;;
29774;SDS011;16676;51.202;6.774;2024-03-25T03:46:49;2.03;;;0.77;;
29774;SDS011;16676;51.202;6.774;2024-03-25T03:50:51;1.85;;;0.80;;
29774;SDS011;16676;51.202;6.774;2024-03-25T03:54:53;1.40;;;0.68;;
29774;SDS011;16676;51.202;6.774;2024-03-25T03:58:55;2.45;;;0.80;;
29774;SDS011;16676;51.202;6.774;2024-03-25T04:02:58;1.58;;;0.70;;
29774;SDS011;16676;51.202;6.774;2024-03-25T04:07:00;2.45;;;0.90;;
29774;SDS011;16676;51.202;6.774;2024-03-25T04:11:03;1.85;;;0.68;;
29774;SDS011;16676;51.202;6.774;2024-03-25T04:15:06;3.28;;;0.70;;
29774;SDS011;16676;51.202;6.774;2024-03-25T04:19:10;1.92;;;0.63;;
29774;SDS011;16676;51.202;6.774;2024-03-25T04:23:12;2.80;;;0.90;;
29774;SDS011;16676;51.202;6.774;2024-03-25T04:27:14;2.97;;;0.60;;
29774;SDS011;16676;51.202;6.774;2024-03-25T04:31:15;1.92;;;0.60;;
29774;SDS011;16676;51.202;6.774;2024-03-25T04:35:18;3.75;;;1.00;;
29774;SDS011;16676;51.202;6.774;2024-03-25T04:39:20;2.00;;;0.75;;
29774;SDS011;16676;51.202;6.774;2024-03-25T04:43:21;2.75;;;0.75;;
29774;SDS011;16676;51.202;6.774;2024-03-25T04:47:22;1.52;;;0.47;;
29774;SDS011;16676;51.202;6.774;2024-03-25T04:51:25;1.63;;;0.68;;
29774;SDS011;16676;51.202;6.774;2024-03-25T04:55:26;1.70;;;0.60;;
29774;SDS011;16676;51.202;6.774;2024-03-25T04:59:27;1.75;;;0.60;;
29774;SDS011;16676;51.202;6.774;2024-03-25T05:03:28;2.50;;;0.70;;
29774;SDS011;16676;51.202;6.774;2024-03-25T05:07:31;3.67;;;0.82;;
29774;SDS011;16676;51.202;6.774;2024-03-25T05:11:32;2.13;;;0.95;;
29774;SDS011;16676;51.202;6.774;2024-03-25T05:15:33;1.65;;;0.80;;
29774;SDS011;16676;51.202;6.774;2024-03-25T05:19:34;2.45;;;0.90;;
29774;SDS011;16676;51.202;6.774;2024-03-25T05:23:36;2.00;;;0.73;;
29774;SDS011;16676;51.202;6.774;2024-03-25T05:27:38;3.05;;;0.88;;
29774;SDS011;16676;51.202;6.774;2024-03-25T05:31:39;2.25;;;0.82;;
29774;SDS011;16676;51.202;6.774;2024-03-25T05:35:55;2.55;;;0.73;;
29774;SDS011;16676;51.202;6.774;2024-03-25T05:39:57;2.50;;;0.60;;
29774;SDS011;16676;51.202;6.774;2024-03-25T05:43:59;2.83;;;1.00;;
29774;SDS011;16676;51.202;6.774;2024-03-25T05:48:00;2.97;;;0.88;;
29774;SDS011;16676;51.202;6.774;2024-03-25T05:52:01;4.03;;;0.98;;
29774;SDS011;16676;51.202;6.774;2024-03-25T05:56:04;3.00;;;1.02;;
29774;SDS011;16676;51.202;6.774;2024-03-25T06:00:06;2.78;;;1.00;;
29774;SDS011;16676;51.202;6.774;2024-03-25T06:04:07;3.67;;;1.23;;
29774;SDS011;16676;51.202;6.774;2024-03-25T06:08:08;3.15;;;0.90;;
29774;SDS011;16676;51.202;6.774;2024-03-25T06:12:11;3.45;;;0.93;;
29774;SDS011;16676;51.202;6.774;2024-03-25T06:16:12;3.72;;;0.70;;
29774;SDS011;16676;51.202;6.774;2024-03-25T06:20:13;5.65;;;1.20;;
29774;SDS011;16676;51.202;6.774;2024-03-25T06:24:14;7.38;;;1.35;;
29774;SDS011;16676;51.202;6.774;2024-03-25T06:28:17;2.33;;;0.80;;
29774;SDS011;16676;51.202;6.774;2024-03-25T06:32:18;3.50;;;1.10;;
29774;SDS011;16676;51.202;6.774;2024-03-25T06:36:37;3.55;;;1.10;;
29774;SDS011;16676;51.202;6.774;2024-03-25T06:40:38;4.80;;;1.00;;
29774;SDS011;16676;51.202;6.774;2024-03-25T06:44:41;6.43;;;0.95;;
29774;SDS011;16676;51.202;6.774;2024-03-25T06:48:42;5.03;;;1.08;;
29774;SDS011;16676;51.202;6.774;2024-03-25T06:52:43;12.68;;;3.58;;
29774;SDS011;16676;51.202;6.774;2024-03-25T06:56:44;14.27;;;4.93;;
29774;SDS011;16676;51.202;6.774;2024-03-25T07:00:46;16.00;;;4.28;;
29774;SDS011;16676;51.202;6.774;2024-03-25T07:04:48;13.65;;;4.22;;
29774;SDS011;16676;51.202;6.774;2024-03-25T07:08:49;18.13;;;4.60;;
29774;SDS011;16676;51.202;6.774;2024-03-25T07:12:50;18.90;;;4.18;;
29774;SDS011;16676;51.202;6.774;2024-03-25T07:16:53;19.75;;;5.03;;
29774;SDS011;16676;51.202;6.774;2024-03-25T07:20:54;14.20;;;4.32;;
29774;SDS011;16676;51.202;6.774;2024-03-25T07:24:55;20.02;;;4.60;;
29774;SDS011;16676;51.202;6.774;2024-03-25T07:28:56;13.85;;;3.83;;
29774;SDS011;16676;51.202;6.774;2024-03-25T07:32:58;10.75;;;3.78;;
29774;SDS011;16676;51.202;6.774;2024-03-25T07:36:59;14.57;;;4.07;;
29774;SDS011;16676;51.202;6.774;2024-03-25T07:41:02;11.55;;;3.42;;
29774;SDS011;16676;51.202;6.774;2024-03-25T07:45:04;11.77;;;3.25;;
29774;SDS011;16676;51.202;6.774;2024-03-25T07:49:07;11.93;;;3.08;;
29774;SDS011;16676;51.202;6.774;2024-03-25T07:53:09;11.73;;;3.20;;
29774;SDS011;16676;51.202;6.774;2024-03-25T07:57:10;18.73;;;3.38;;
29774;SDS011;16676;51.202;6.774;2024-03-25T08:01:11;16.23;;;3.17;;
29774;SDS011;16676;51.202;6.774;2024-03-25T08:05:13;15.10;;;2.95;;
29774;SDS011;16676;51.202;6.774;2024-03-25T08:09:14;12.38;;;3.10;;
29774;SDS011;16676;51.202;6.774;2024-03-25T08:13:15;10.85;;;2.70;;
29774;SDS011;16676;51.202;6.774;2024-03-25T08:17:16;13.90;;;3.35;;
29774;SDS011;16676;51.202;6.774;2024-03-25T08:21:19;13.32;;;2.92;;
29774;SDS011;16676;51.202;6.774;2024-03-25T08:25:20;12.80;;;3.20;;
29774;SDS011;16676;51.202;6.774;2024-03-25T08:29:21;17.23;;;3.58;;
29774;SDS011;16676;51.202;6.774;2024-03-25T08:33:22;11.02;;;2.95;;
29774;SDS011;16676;51.202;6.774;2024-03-25T08:37:25;9.88;;;3.00;;
29774;SDS011;16676;51.202;6.774;2024-03-25T08:41:26;9.35;;;2.38;;
29774;SDS011;16676;51.202;6.774;2024-03-25T08:45:27;9.93;;;2.67;;
29774;SDS011;16676;51.202;6.774;2024-03-25T08:49:28;11.98;;;2.63;;
29774;SDS011;16676;51.202;6.774;2024-03-25T08:53:30;12.13;;;2.53;;
29774;SDS011;16676;51.202;6.774;2024-03-25T08:57:31;15.98;;;3.33;;
29774;SDS011;16676;51.202;6.774;2024-03-25T09:01:32;10.43;;;3.13;;
29774;SDS011;16676;51.202;6.774;2024-03-25T09:05:34;9.95;;;2.60;;
29774;SDS011;16676;51.202;6.774;2024-03-25T09:09:36;11.50;;;2.85;;
29774;SDS011;16676;51.202;6.774;2024-03-25T09:13:55;12.77;;;2.90;;
29774;SDS011;16676;51.202;6.774;2024-03-25T09:17:57;10.23;;;2.63;;
29774;SDS011;16676;51.202;6.774;2024-03-25T09:21:58;20.27;;;2.83;;
29774;SDS011;16676;51.202;6.774;2024-03-25T09:26:00;12.98;;;2.47;;
29774;SDS011;16676;51.202;6.774;2024-03-25T09:30:01;11.55;;;2.42;;
29774;SDS011;16676;51.202;6.774;2024-03-25T09:34:02;10.52;;;2.88;;
29774;SDS011;16676;51.202;6.774;2024-03-25T09:38:03;9.48;;;2.65;;
29774;SDS011;16676;51.202;6.774;2024-03-25T09:42:06;10.95;;;2.72;;
29774;SDS011;16676;51.202;6.774;2024-03-25T09:46:09;11.55;;;2.65;;
29774;SDS011;16676;51.202;6.774;2024-03-25T09:50:10;11.55;;;3.15;;
29774;SDS011;16676;51.202;6.774;2024-03-25T09:54:12;11.68;;;2.67;;
29774;SDS011;16676;51.202;6.774;2024-03-25T09:58:14;12.00;;;2.90;;
29774;SDS011;16676;51.202;6.774;2024-03-25T10:02:17;13.93;;;3.30;;
29774;SDS011;16676;51.202;6.774;2024-03-25T10:06:19;11.05;;;3.05;;
29774;SDS011;16676;51.202;6.774;2024-03-25T10:10:20;10.30;;;3.15;;
29774;SDS011;16676;51.202;6.774;2024-03-25T10:14:23;14.77;;;3.50;;
29774;SDS011;16676;51.202;6.774;2024-03-25T10:18:24;14.95;;;3.50;;
29774;SDS011;16676;51.202;6.774;2024-03-25T10:22:25;12.65;;;3.70;;
29774;SDS011;16676;51.202;6.774;2024-03-25T10:26:26;13.95;;;3.95;;
29774;SDS011;16676;51.202;6.774;2024-03-25T10:30:29;10.77;;;2.97;;
29774;SDS011;16676;51.202;6.774;2024-03-25T10:34:30;11.25;;;3.72;;
29774;SDS011;16676;51.202;6.774;2024-03-25T10:38:31;8.10;;;2.80;;
29774;SDS011;16676;51.202;6.774;2024-03-25T10:42:33;9.32;;;3.33;;
29774;SDS011;16676;51.202;6.774;2024-03-25T10:46:37;8.90;;;2.90;;
29774;SDS011;16676;51.202;6.774;2024-03-25T10:50:38;8.00;;;2.90;;
29774;SDS011;16676;51.202;6.774;2024-03-25T10:54:41;11.00;;;3.53;;
29774;SDS011;16676;51.202;6.774;2024-03-25T10:58:43;8.57;;;3.17;;
29774;SDS011;16676;51.202;6.774;2024-03-25T11:02:46;11.38;;;3.45;;
29774;SDS011;16676;51.202;6.774;2024-03-25T11:06:47;9.60;;;3.67;;
29774;SDS011;16676;51.202;6.774;2024-03-25T11:10:48;11.40;;;3.83;;
29774;SDS011;16676;51.202;6.774;2024-03-25T11:14:56;10.30;;;3.40;;
29774;SDS011;16676;51.202;6.774;2024-03-25T11:19:01;7.53;;;3.35;;
29774;SDS011;16676;51.202;6.774;2024-03-25T11:23:07;7.85;;;3.10;;
29774;SDS011;16676;51.202;6.774;2024-03-25T11:27:09;9.75;;;3.08;;
29774;SDS011;16676;51.202;6.774;2024-03-25T11:31:10;12.23;;;3.67;;
29774;SDS011;16676;51.202;6.774;2024-03-25T11:35:13;9.48;;;3.28;;
29774;SDS011;16676;51.202;6.774;2024-03-25T11:39:14;8.60;;;3.15;;
29774;SDS011;16676;51.202;6.774;2024-03-25T11:43:19;9.32;;;3.13;;
29774;SDS011;16676;51.202;6.774;2024-03-25T11:47:22;7.85;;;3.10;;
29774;SDS011;16676;51.202;6.774;2024-03-25T11:51:25;8.77;;;2.85;;
29774;SDS011;16676;51.202;6.774;2024-03-25T11:55:26;8.00;;;3.15;;
29774;SDS011;16676;51.202;6.774;2024-03-25T11:59:27;7.88;;;2.92;;
29774;SDS011;16676;51.202;6.774;2024-03-25T12:03:28;8.57;;;3.22;;
29774;SDS011;16676;51.202;6.774;2024-03-25T12:07:30;6.55;;;2.67;;
29774;SDS011;16676;51.202;6.774;2024-03-25T12:11:33;9.30;;;2.38;;
29774;SDS011;16676;51.202;6.774;2024-03-25T12:15:34;8.13;;;2.58;;
29774;SDS011;16676;51.202;6.774;2024-03-25T12:19:35;8.00;;;2.72;;
29774;SDS011;16676;51.202;6.774;2024-03-25T12:23:38;6.97;;;2.50;;
29774;SDS011;16676;51.202;6.774;2024-03-25T12:27:39;8.85;;;2.13;;
29774;SDS011;16676;51.202;6.774;2024-03-25T12:31:41;8.32;;;2.33;;
29774;SDS011;16676;51.202;6.774;2024-03-25T12:35:44;8.02;;;2.13;;
29774;SDS011;16676;51.202;6.774;2024-03-25T12:39:48;8.75;;;2.33;;
29774;SDS011;16676;51.202;6.774;2024-03-25T12:43:50;9.50;;;2.80;;
29774;SDS011;16676;51.202;6.774;2024-03-25T12:47:51;7.03;;;2.35;;
29774;SDS011;16676;51.202;6.774;2024-03-25T12:51:52;5.82;;;2.13;;
29774;SDS011;16676;51.202;6.774;2024-03-25T12:55:55;6.50;;;2.05;;
29774;SDS011;16676;51.202;6.774;2024-03-25T12:59:56;8.35;;;2.85;;
29774;SDS011;16676;51.202;6.774;2024-03-25T13:03:57;7.57;;;1.98;;
29774;SDS011;16676;51.202;6.774;2024-03-25T13:07:58;9.65;;;2.70;;
29774;SDS011;16676;51.202;6.774;2024-03-25T13:12:00;5.00;;;2.00;;
29774;SDS011;16676;51.202;6.774;2024-03-25T13:16:02;8.70;;;2.83;;
29774;SDS011;16676;51.202;6.774;2024-03-25T13:20:04;8.45;;;2.67;;
29774;SDS011;16676;51.202;6.774;2024-03-25T13:24:05;5.57;;;2.03;;
29774;SDS011;16676;51.202;6.774;2024-03-25T13:28:08;8.00;;;2.28;;
29774;SDS011;16676;51.202;6.774;2024-03-25T13:32:09;8.85;;;2.28;;
29774;SDS011;16676;51.202;6.774;2024-03-25T13:36:10;7.78;;;2.28;;
29774;SDS011;16676;51.202;6.774;2024-03-25T13:40:11;13.82;;;2.88;;
29774;SDS011;16676;51.202;6.774;2024-03-25T13:44:14;7.47;;;2.00;;
29774;SDS011;16676;51.202;6.774;2024-03-25T13:48:16;7.53;;;2.03;;
29774;SDS011;16676;51.202;6.774;2024-03-25T13:52:17;5.60;;;1.58;;
29774;SDS011;16676;51.202;6.774;2024-03-25T13:56:18;6.70;;;1.63;;
29774;SDS011;16676;51.202;6.774;2024-03-25T14:00:20;11.10;;;1.98;;
29774;SDS011;16676;51.202;6.774;2024-03-25T14:04:22;7.32;;;1.83;;
29774;SDS011;16676;51.202;6.774;2024-03-25T14:08:23;5.40;;;1.42;;
29774;SDS011;16676;51.202;6.774;2024-03-25T14:12:24;5.18;;;1.42;;
29774;SDS011;16676;51.202;6.774;2024-03-25T14:16:26;4.35;;;1.50;;
29774;SDS011;16676;51.202;6.774;2024-03-25T14:20:28;7.22;;;1.55;;
29774;SDS011;16676;51.202;6.774;2024-03-25T14:24:29;4.30;;;1.10;;
29774;SDS011;16676;51.202;6.774;2024-03-25T14:28:30;4.97;;;1.50;;
29774;SDS011;16676;51.202;6.774;2024-03-25T14:32:32;3.40;;;1.23;;
29774;SDS011;16676;51.202;6.774;2024-03-25T14:36:33;5.60;;;1.50;;
29774;SDS011;16676;51.202;6.774;2024-03-25T14:40:37;6.65;;;1.63;;
29774;SDS011;16676;51.202;6.774;2024-03-25T14:44:39;4.43;;;1.30;;
29774;SDS011;16676;51.202;6.774;2024-03-25T14:48:41;3.83;;;1.20;;
29774;SDS011;16676;51.202;6.774;2024-03-25T14:52:42;5.90;;;1.52;;
29774;SDS011;16676;51.202;6.774;2024-03-25T14:56:43;2.17;;;0.95;;
29774;SDS011;16676;51.202;6.774;2024-03-25T15:00:44;6.45;;;1.15;;
29774;SDS011;16676;51.202;6.774;2024-03-25T15:04:47;5.50;;;1.40;;
29774;SDS011;16676;51.202;6.774;2024-03-25T15:08:48;5.65;;;1.40;;
29774;SDS011;16676;51.202;6.774;2024-03-25T15:12:49;7.47;;;1.52;;
29774;SDS011;16676;51.202;6.774;2024-03-25T15:16:50;3.60;;;1.30;;
29774;SDS011;16676;51.202;6.774;2024-03-25T15:21:00;4.82;;;1.15;;
29774;SDS011;16676;51.202;6.774;2024-03-25T15:25:01;5.13;;;1.00;;
29774;SDS011;16676;51.202;6.774;2024-03-25T15:29:03;6.07;;;1.58;;
29774;SDS011;16676;51.202;6.774;2024-03-25T15:33:04;3.75;;;1.13;;
29774;SDS011;16676;51.202;6.774;2024-03-25T15:37:06;7.18;;;1.70;;
29774;SDS011;16676;51.202;6.774;2024-03-25T15:41:07;9.73;;;1.40;;
29774;SDS011;16676;51.202;6.774;2024-03-25T15:45:08;3.58;;;1.02;;
29774;SDS011;16676;51.202;6.774;2024-03-25T15:49:10;5.40;;;1.02;;
29774;SDS011;16676;51.202;6.774;2024-03-25T15:53:12;5.47;;;1.17;;
29774;SDS011;16676;51.202;6.774;2024-03-25T15:57:13;5.00;;;1.15;;
29774;SDS011;16676;51.202;6.774;2024-03-25T16:01:14;4.40;;;1.00;;
29774;SDS011;16676;51.202;6.774;2024-03-25T16:05:15;3.20;;;1.20;;
29774;SDS011;16676;51.202;6.774;2024-03-25T16:09:18;4.97;;;1.27;;
29774;SDS011;16676;51.202;6.774;2024-03-25T16:13:19;3.83;;;1.02;;
29774;SDS011;16676;51.202;6.774;2024-03-25T16:17:20;4.53;;;1.30;;
29774;SDS011;16676;51.202;6.774;2024-03-25T16:21:21;4.25;;;1.20;;
29774;SDS011;16676;51.202;6.774;2024-03-25T16:25:24;5.90;;;1.25;;
29774;SDS011;16676;51.202;6.774;2024-03-25T16:29:25;5.63;;;1.08;;
29774;SDS011;16676;51.202;6.774;2024-03-25T16:33:26;6.30;;;1.25;;
29774;SDS011;16676;51.202;6.774;2024-03-25T16:37:28;3.00;;;0.93;;
29774;SDS011;16676;51.202;6.774;2024-03-25T16:41:30;3.40;;;1.13;;
29774;SDS011;16676;51.202;6.774;2024-03-25T16:45:31;5.55;;;0.95;;
29774;SDS011;16676;51.202;6.774;2024-03-25T16:49:32;7.63;;;1.20;;
29774;SDS011;16676;51.202;6.774;2024-03-25T16:53:33;7.53;;;1.45;;
29774;SDS011;16676;51.202;6.774;2024-03-25T16:57:36;5.18;;;1.15;;
29774;SDS011;16676;51.202;6.774;2024-03-25T17:01:37;11.15;;;1.70;;
29774;SDS011;16676;51.202;6.774;2024-03-25T17:05:38;7.68;;;1.02;;
29774;SDS011;16676;51.202;6.774;2024-03-25T17:09:39;5.57;;;1.08;;
29774;SDS011;16676;51.202;6.774;2024-03-25T17:13:42;4.57;;;1.20;;
29774;SDS011;16676;51.202;6.774;2024-03-25T17:17:43;5.00;;;0.93;;
29774;SDS011;16676;51.202;6.774;2024-03-25T17:21:44;5.20;;;0.95;;
29774;SDS011;16676;51.202;6.774;2024-03-25T17:25:45;9.80;;;1.23;;
29774;SDS011;16676;51.202;6.774;2024-03-25T17:29:48;3.33;;;1.00;;
29774;SDS011;16676;51.202;6.774;2024-03-25T17:33:49;8.98;;;1.27;;
29774;SDS011;16676;51.202;6.774;2024-03-25T17:37:50;9.02;;;1.00;;
29774;SDS011;16676;51.202;6.774;2024-03-25T17:41:51;3.60;;;1.02;;
29774;SDS011;16676;51.202;6.774;2024-03-25T17:45:54;4.68;;;1.17;;
29774;SDS011;16676;51.202;6.774;2024-03-25T17:49:55;3.03;;;0.77;;
29774;SDS011;16676;51.202;6.774;2024-03-25T17:53:56;4.93;;;1.02;;
29774;SDS011;16676;51.202;6.774;2024-03-25T17:57:57;4.30;;;0.85;;
29774;SDS011;16676;51.202;6.774;2024-03-25T18:01:59;3.45;;;1.10;;
29774;SDS011;16676;51.202;6.774;2024-03-25T18:06:00;3.65;;;1.08;;
29774;SDS011;16676;51.202;6.774;2024-03-25T18:10:02;3.75;;;0.93;;
29774;SDS011;16676;51.202;6.774;2024-03-25T18:14:03;7.35;;;1.00;;
29774;SDS011;16676;51.202;6.774;2024-03-25T18:18:06;1.88;;;0.60;;
29774;SDS011;16676;51.202;6.774;2024-03-25T18:22:07;1.75;;;0.70;;
29774;SDS011;16676;51.202;6.774;2024-03-25T18:26:08;25.23;;;3.92;;
29774;SDS011;16676;51.202;6.774;2024-03-25T18:30:10;20.05;;;5.20;;
29774;SDS011;16676;51.202;6.774;2024-03-25T18:34:13;37.08;;;10.05;;
29774;SDS011;16676;51.202;6.774;2024-03-25T18:38:14;111.40;;;25.33;;
29774;SDS011;16676;51.202;6.774;2024-03-25T18:42:15;193.07;;;40.63;;
29774;SDS011;16676;51.202;6.774;2024-03-25T18:46:16;202.25;;;45.97;;
29774;SDS011;16676;51.202;6.774;2024-03-25T18:50:19;214.90;;;50.45;;
29774;SDS011;16676;51.202;6.774;2024-03-25T18:54:20;226.45;;;55.38;;
29774;SDS011;16676;51.202;6.774;2024-03-25T18:58:21;220.68;;;54.55;;
29774;SDS011;16676;51.202;6.774;2024-03-25T19:02:22;215.38;;;52.95;;
29774;SDS011;16676;51.202;6.774;2024-03-25T19:06:24;203.30;;;51.08;;
29774;SDS011;16676;51.202;6.774;2024-03-25T19:10:25;212.60;;;51.55;;
29774;SDS011;16676;51.202;6.774;2024-03-25T19:14:26;182.15;;;49.22;;
29774;SDS011;16676;51.202;6.774;2024-03-25T19:18:27;210.32;;;65.72;;
29774;SDS011;16676;51.202;6.774;2024-03-25T19:22:30;220.48;;;75.50;;
29774;SDS011;16676;51.202;6.774;2024-03-25T19:26:31;238.63;;;82.63;;
29774;SDS011;16676;51.202;6.774;2024-03-25T19:30:32;227.45;;;84.50;;
29774;SDS011;16676;51.202;6.774;2024-03-25T19:34:33;220.73;;;78.07;;
29774;SDS011;16676;51.202;6.774;2024-03-25T19:38:35;206.95;;;74.15;;
29774;SDS011;16676;51.202;6.774;2024-03-25T19:42:36;190.98;;;71.38;;
29774;SDS011;16676;51.202;6.774;2024-03-25T19:46:38;200.98;;;72.53;;
29774;SDS011;16676;51.202;6.774;2024-03-25T19:50:39;198.25;;;68.15;;
29774;SDS011;16676;51.202;6.774;2024-03-25T19:54:41;185.45;;;64.43;;
29774;SDS011;16676;51.202;6.774;2024-03-25T19:58:42;183.85;;;64.20;;
29774;SDS011;16676;51.202;6.774;2024-03-25T20:02:43;163.65;;;55.78;;
29774;SDS011;16676;51.202;6.774;2024-03-25T20:06:46;146.90;;;55.40;;
29774;SDS011;16676;51.202;6.774;2024-03-25T20:10:48;131.13;;;50.10;;
29774;SDS011;16676;51.202;6.774;2024-03-25T20:14:49;135.35;;;50.40;;
29774;SDS011;16676;51.202;6.774;2024-03-25T20:18:50;117.82;;;44.55;;
29774;SDS011;16676;51.202;6.774;2024-03-25T20:22:51;111.50;;;45.50;;
29774;SDS011;16676;51.202;6.774;2024-03-25T20:26:54;120.25;;;42.38;;
29774;SDS011;16676;51.202;6.774;2024-03-25T20:30:55;102.60;;;41.03;;
29774;SDS011;16676;51.202;6.774;2024-03-25T20:34:57;102.78;;;40.38;;
29774;SDS011;16676;51.202;6.774;2024-03-25T20:38:58;115.57;;;41.05;;
29774;SDS011;16676;51.202;6.774;2024-03-25T20:43:01;105.68;;;39.50;;
29774;SDS011;16676;51.202;6.774;2024-03-25T20:47:02;99.80;;;37.08;;
29774;SDS011;16676;51.202;6.774;2024-03-25T20:51:03;104.53;;;36.65;;
29774;SDS011;16676;51.202;6.774;2024-03-25T20:55:05;89.65;;;34.08;;
29774;SDS011;16676;51.202;6.774;2024-03-25T20:59:08;98.45;;;34.30;;
29774;SDS011;16676;51.202;6.774;2024-03-25T21:03:10;94.50;;;33.00;;
29774;SDS011;16676;51.202;6.774;2024-03-25T21:07:11;83.00;;;31.27;;
29774;SDS011;16676;51.202;6.774;2024-03-25T21:11:12;85.45;;;30.83;;
29774;SDS011;16676;51.202;6.774;2024-03-25T21:15:14;82.40;;;31.40;;
29774;SDS011;16676;51.202;6.774;2024-03-25T21:19:15;81.47;;;28.75;;
29774;SDS011;16676;51.202;6.774;2024-03-25T21:23:16;84.88;;;28.55;;
29774;SDS011;16676;51.202;6.774;2024-03-25T21:27:18;76.78;;;28.92;;
29774;SDS011;16676;51.202;6.774;2024-03-25T21:31:20;78.93;;;28.70;;
29774;SDS011;16676;51.202;6.774;2024-03-25T21:35:21;75.22;;;27.73;;
29774;SDS011;16676;51.202;6.774;2024-03-25T21:39:22;77.55;;;28.15;;
29774;SDS011;16676;51.202;6.774;2024-03-25T21:43:23;72.55;;;27.05;;
29774;SDS011;16676;51.202;6.774;2024-03-25T21:47:26;71.53;;;25.33;;
29774;SDS011;16676;51.202;6.774;2024-03-25T21:51:27;72.78;;;26.02;;
29774;SDS011;16676;51.202;6.774;2024-03-25T21:55:28;71.35;;;25.88;;
29774;SDS011;16676;51.202;6.774;2024-03-25T21:59:29;59.90;;;24.20;;
29774;SDS011;16676;51.202;6.774;2024-03-25T22:03:31;71.75;;;25.45;;
29774;SDS011;16676;51.202;6.774;2024-03-25T22:07:32;62.88;;;24.25;;
29774;SDS011;16676;51.202;6.774;2024-03-25T22:11:33;71.95;;;24.90;;
29774;SDS011;16676;51.202;6.774;2024-03-25T22:15:34;61.95;;;23.42;;
29774;SDS011;16676;51.202;6.774;2024-03-25T22:19:37;58.75;;;23.17;;
29774;SDS011;16676;51.202;6.774;2024-03-25T22:23:38;62.38;;;21.95;;
29774;SDS011;16676;51.202;6.774;2024-03-25T22:27:39;59.83;;;20.92;;
29774;SDS011;16676;51.202;6.774;2024-03-25T22:31:40;51.80;;;20.92;;
29774;SDS011;16676;51.202;6.774;2024-03-25T22:35:42;55.67;;;21.55;;
29774;SDS011;16676;51.202;6.774;2024-03-25T22:39:53;54.60;;;19.75;;
29774;SDS011;16676;51.202;6.774;2024-03-25T22:43:54;58.97;;;19.23;;
29774;SDS011;16676;51.202;6.774;2024-03-25T22:47:55;60.08;;;20.77;;
29774;SDS011;16676;51.202;6.774;2024-03-25T22:51:58;44.72;;;18.52;;
29774;SDS011;16676;51.202;6.774;2024-03-25T22:55:59;51.78;;;18.52;;
29774;SDS011;16676;51.202;6.774;2024-03-25T23:00:01;57.05;;;19.63;;
29774;SDS011;16676;51.202;6.774;2024-03-25T23:04:02;47.50;;;18.38;;
29774;SDS011;16676;51.202;6.774;2024-03-25T23:08:05;47.80;;;18.75;;
29774;SDS011;16676;51.202;6.774;2024-03-25T23:12:06;45.35;;;18.23;;
29774;SDS011;16676;51.202;6.774;2024-03-25T23:16:07;43.60;;;16.95;;
29774;SDS011;16676;51.202;6.774;2024-03-25T23:20:09;46.33;;;15.95;;
29774;SDS011;16676;51.202;6.774;2024-03-25T23:24:12;40.42;;;15.40;;
29774;SDS011;16676;51.202;6.774;2024-03-25T23:28:13;44.70;;;16.25;;
29774;SDS011;16676;51.202;6.774;2024-03-25T23:32:14;40.78;;;15.68;;
29774;SDS011;16676;51.202;6.774;2024-03-25T23:36:15;43.47;;;16.45;;
29774;SDS011;16676;51.202;6.774;2024-03-25T23:40:18;42.67;;;14.50;;
29774;SDS011;16676;51.202;6.774;2024-03-25T23:44:19;42.38;;;15.13;;
29774;SDS011;16676;51.202;6.774;2024-03-25T23:48:20;36.60;;;15.07;;
29774;SDS011;16676;51.202;6.774;2024-03-25T23:52:22;37.35;;;14.70;;
29774;SDS011;16676;51.202;6.774;2024-03-25T23:56:24;39.75;;;15.70;;
